Time;durP1;ratioP1;P1;durP2;ratioP2;P2;SDS_P1;SDS_P2;PMS_P1;PMS_P2;Temp;Humidity;BMP_temperature;BMP_pressure;BME280_temperature;BME280_humidity;BME280_pressure;Samples;Min_cycle;Max_cycle;Signal;HPM_P1;HPM_P2
2023/07/16 00:00:27;;;;;;;5.10;2.60;;;;;;;18.61;100.00;101023.82;106735;1282;58754;-80
2023/07/16 00:02:52;;;;;;;6.90;2.50;;;;;;;18.64;100.00;101023.17;107164;1282;58546;-79
2023/07/16 00:05:18;;;;;;;4.90;2.70;;;;;;;18.67;100.00;101023.27;107064;1282;73417;-79
2023/07/16 00:07:43;;;;;;;7.30;2.70;;;;;;;18.68;100.00;101023.18;107115;1282;58215;-79
2023/07/16 00:10:09;;;;;;;5.60;2.40;;;;;;;18.70;100.00;101027.30;107090;1282;58342;-79
2023/07/16 00:12:35;;;;;;;6.90;2.90;;;;;;;18.70;100.00;101021.13;107156;1282;58238;-78
2023/07/16 00:15:00;;;;;;;7.80;2.70;;;;;;;18.70;100.00;101021.12;107188;1282;58252;-79
2023/07/16 00:17:26;;;;;;;5.60;2.80;;;;;;;18.72;100.00;101017.80;107062;1282;61851;-79
2023/07/16 00:19:51;;;;;;;9.10;2.60;;;;;;;18.74;100.00;101022.66;107104;1282;58458;-78
2023/07/16 00:22:17;;;;;;;6.70;3.30;;;;;;;18.75;100.00;101024.55;107073;1283;58451;-79
2023/07/16 00:24:42;;;;;;;5.10;2.90;;;;;;;18.76;100.00;101017.86;107102;1282;58390;-79
2023/07/16 00:27:08;;;;;;;4.00;2.70;;;;;;;18.78;100.00;101021.27;107104;1282;58240;-80
2023/07/16 00:29:33;;;;;;;5.00;2.70;;;;;;;18.78;100.00;101016.23;106712;1282;58403;-79
2023/07/16 00:31:59;;;;;;;4.50;2.40;;;;;;;18.79;100.00;101016.87;107122;1282;58246;-79
2023/07/16 00:34:24;;;;;;;4.70;2.90;;;;;;;18.82;100.00;101018.73;107083;1282;58278;-78
2023/07/16 00:36:50;;;;;;;4.20;2.40;;;;;;;18.82;100.00;101014.52;107106;1282;58185;-79
2023/07/16 00:39:16;;;;;;;7.40;2.70;;;;;;;18.85;100.00;101022.11;107145;1282;58959;-79
2023/07/16 00:41:41;;;;;;;7.60;3.00;;;;;;;18.89;100.00;101022.47;107105;1282;75107;-79
2023/07/16 00:44:07;;;;;;;8.10;3.10;;;;;;;18.92;100.00;101020.94;107124;1282;58298;-80
2023/07/16 00:46:36;;;;;;;5.60;2.60;;;;;;;18.92;100.00;101019.49;106912;1282;58589;-79
2023/07/16 00:49:02;;;;;;;4.70;2.90;;;;;;;18.91;100.00;101015.64;107077;1282;61759;-79
2023/07/16 00:51:28;;;;;;;9.50;3.20;;;;;;;18.89;100.00;101017.20;107125;1282;58308;-78
2023/07/16 00:53:53;;;;;;;7.30;2.80;;;;;;;18.87;100.00;101019.56;107148;1282;58443;-78
2023/07/16 00:56:19;;;;;;;5.60;2.30;;;;;;;18.87;100.00;101016.13;107132;1282;58739;-78
2023/07/16 00:58:45;;;;;;;7.30;2.80;;;;;;;18.83;100.00;101015.96;107057;1282;58692;-78
2023/07/16 01:01:10;;;;;;;5.80;2.80;;;;;;;18.82;100.00;101016.54;107101;1282;58314;-78
2023/07/16 01:03:36;;;;;;;5.70;2.60;;;;;;;18.83;100.00;101018.05;106650;1282;58369;-78
2023/07/16 01:06:11;;;;;;;5.20;2.60;;;;;;;18.82;100.00;101018.17;107092;1282;58222;-77
2023/07/16 01:08:36;;;;;;;6.90;3.30;;;;;;;18.81;100.00;101019.61;107061;1282;71688;-79
2023/07/16 01:11:03;;;;;;;4.40;2.90;;;;;;;18.82;100.00;101021.29;107086;1282;58334;-79
2023/07/16 01:13:29;;;;;;;7.10;2.50;;;;;;;18.82;100.00;101018.55;107152;1282;58309;-78
2023/07/16 01:15:55;;;;;;;5.30;3.10;;;;;;;18.83;100.00;101019.30;107116;1283;58201;-78
2023/07/16 01:18:21;;;;;;;6.60;2.80;;;;;;;18.80;100.00;101017.50;107101;1282;58278;-79
2023/07/16 01:20:46;;;;;;;4.90;2.60;;;;;;;18.79;100.00;101015.46;106733;1282;58818;-79
2023/07/16 01:23:36;;;;;;;7.30;2.70;;;;;;;18.78;100.00;101017.52;107147;1282;58350;-79
2023/07/16 01:26:16;;;;;;;6.20;3.00;;;;;;;18.80;100.00;101021.44;106704;1282;74615;-79
2023/07/16 01:29:15;;;;;;;7.90;2.50;;;;;;;18.81;100.00;101029.94;107123;1282;74274;-78
2023/07/16 01:31:41;;;;;;;7.10;2.90;;;;;;;18.78;100.00;101029.74;106741;1282;72121;-78
2023/07/16 01:34:09;;;;;;;3.40;2.40;;;;;;;18.75;100.00;101031.01;106564;1282;58665;-78
2023/07/16 01:36:38;;;;;;;8.00;3.30;;;;;;;18.70;100.00;101027.96;107143;1282;60109;-78
2023/07/16 01:39:04;;;;;;;7.80;3.10;;;;;;;18.65;100.00;101029.95;107098;1282;72815;-78
2023/07/16 01:41:29;;;;;;;7.10;2.90;;;;;;;18.64;100.00;101033.30;106751;1282;58392;-78
2023/07/16 01:43:55;;;;;;;7.10;2.80;;;;;;;18.59;100.00;101028.98;107109;1282;58182;-79
2023/07/16 01:46:20;;;;;;;5.20;2.70;;;;;;;18.53;100.00;101027.20;107063;1282;58492;-78
2023/07/16 01:48:47;;;;;;;5.30;2.70;;;;;;;18.50;100.00;101025.11;107146;1282;58274;-79
2023/07/16 01:51:14;;;;;;;8.90;3.00;;;;;;;18.47;100.00;101023.44;106948;1285;58530;-79
2023/07/16 01:53:40;;;;;;;7.10;3.00;;;;;;;18.42;100.00;101022.80;107079;1282;71841;-79
2023/07/16 01:56:05;;;;;;;5.10;2.80;;;;;;;18.40;100.00;101032.35;107105;1282;58180;-78
2023/07/16 01:58:31;;;;;;;5.10;2.80;;;;;;;18.37;100.00;101034.59;107135;1282;59177;-78
2023/07/16 02:00:57;;;;;;;3.80;2.80;;;;;;;18.33;100.00;101039.80;107105;1282;58357;-78
2023/07/16 02:03:22;;;;;;;7.10;3.00;;;;;;;18.31;100.00;101041.34;107117;1282;58300;-78
2023/07/16 02:05:48;;;;;;;8.00;3.00;;;;;;;18.28;100.00;101033.89;106617;1282;58517;-79
2023/07/16 02:08:13;;;;;;;6.50;3.20;;;;;;;18.24;100.00;101033.64;107067;1282;60995;-78
2023/07/16 02:10:39;;;;;;;8.60;3.00;;;;;;;18.23;100.00;101033.75;106594;1282;58615;-78
2023/07/16 02:13:04;;;;;;;4.60;2.90;;;;;;;18.21;100.00;101035.00;107093;1282;58243;-78
2023/07/16 02:15:30;;;;;;;7.00;2.80;;;;;;;18.22;100.00;101035.10;106613;1282;58474;-79
2023/07/16 02:17:56;;;;;;;4.50;3.10;;;;;;;18.22;100.00;101037.38;107130;1282;58159;-78
2023/07/16 02:20:22;;;;;;;9.30;3.10;;;;;;;18.23;100.00;101036.10;107078;1282;73883;-78
2023/07/16 02:22:47;;;;;;;6.70;3.00;;;;;;;18.26;100.00;101035.66;107123;1282;58552;-79
2023/07/16 02:25:13;;;;;;;8.10;3.00;;;;;;;18.30;100.00;101037.55;106591;1282;58335;-79
2023/07/16 02:27:39;;;;;;;11.70;3.00;;;;;;;18.34;100.00;101036.17;107085;1282;58514;-78
2023/07/16 02:30:06;;;;;;;7.20;3.30;;;;;;;18.37;100.00;101037.25;107142;1282;58285;-79
2023/07/16 02:32:32;;;;;;;7.30;3.00;;;;;;;18.40;100.00;101035.02;106757;1282;73262;-78
2023/07/16 02:34:58;;;;;;;11.50;3.00;;;;;;;18.47;100.00;101039.79;107120;1282;58282;-79
2023/07/16 02:37:23;;;;;;;6.70;3.00;;;;;;;18.57;100.00;101038.96;106867;1282;58178;-78
2023/07/16 02:39:49;;;;;;;8.70;3.10;;;;;;;18.66;100.00;101047.95;106901;1282;58323;-79
2023/07/16 02:42:14;;;;;;;4.80;2.80;;;;;;;18.75;100.00;101042.84;106615;1282;58331;-79
2023/07/16 02:44:44;;;;;;;5.40;3.10;;;;;;;18.85;100.00;101035.39;107156;1282;58269;-79
2023/07/16 02:47:11;;;;;;;5.90;3.00;;;;;;;18.94;100.00;101035.73;107059;1282;62840;-79
2023/07/16 02:49:37;;;;;;;8.60;3.30;;;;;;;19.03;100.00;101035.71;107125;1282;59237;-79
2023/07/16 02:52:03;;;;;;;6.70;3.10;;;;;;;19.15;100.00;101042.07;107085;1285;58194;-79
2023/07/16 02:54:28;;;;;;;7.30;2.90;;;;;;;19.35;100.00;101050.21;107131;1282;58316;-79
2023/07/16 02:56:54;;;;;;;5.80;2.90;;;;;;;19.55;100.00;101048.72;106664;1282;58417;-79
2023/07/16 02:59:19;;;;;;;11.50;2.90;;;;;;;19.73;100.00;101048.70;107110;1282;58249;-79
2023/07/16 03:01:45;;;;;;;6.40;3.00;;;;;;;19.85;100.00;101052.91;106950;1284;58302;-80
2023/07/16 03:04:10;;;;;;;5.60;2.90;;;;;;;19.94;100.00;101055.58;107125;1282;58444;-78
2023/07/16 03:06:36;;;;;;;6.50;2.60;;;;;;;20.03;100.00;101049.69;107085;1282;58275;-79
2023/07/16 03:09:01;;;;;;;9.10;2.90;;;;;;;20.15;100.00;101054.45;107123;1282;59302;-78
2023/07/16 03:11:27;;;;;;;5.20;2.50;;;;;;;20.27;100.00;101061.04;107125;1285;58200;-79
2023/07/16 03:13:52;;;;;;;4.90;3.10;;;;;;;20.35;100.00;101059.73;107163;1282;58358;-79
2023/07/16 03:16:18;;;;;;;7.60;3.20;;;;;;;20.46;100.00;101066.14;107134;1282;58394;-80
2023/07/16 03:18:45;;;;;;;7.30;3.00;;;;;;;20.58;100.00;101064.16;106822;1282;58318;-79
2023/07/16 03:21:10;;;;;;;8.70;3.10;;;;;;;20.79;100.00;101064.00;107091;1282;58201;-79
2023/07/16 03:23:36;;;;;;;7.50;2.90;;;;;;;21.07;100.00;101062.14;106875;1282;58304;-79
2023/07/16 03:26:01;;;;;;;5.60;2.90;;;;;;;21.53;100.00;101066.41;107105;1282;58283;-79
2023/07/16 03:28:27;;;;;;;6.40;2.70;;;;;;;22.16;100.00;101066.08;107120;1282;58668;-79
2023/07/16 03:30:53;;;;;;;6.00;2.80;;;;;;;22.83;100.00;101066.38;107087;1282;60319;-79
2023/07/16 03:33:19;;;;;;;5.10;2.60;;;;;;;23.58;100.00;101070.86;107124;1282;73892;-80
2023/07/16 03:35:46;;;;;;;7.00;2.60;;;;;;;24.15;100.00;101069.93;107090;1282;58274;-80
2023/07/16 03:38:13;;;;;;;7.20;2.60;;;;;;;24.70;100.00;101072.46;107101;1282;58337;-81
2023/07/16 03:40:38;;;;;;;8.50;3.00;;;;;;;25.24;100.00;101065.64;107138;1282;58894;-80
2023/07/16 03:43:04;;;;;;;3.70;2.40;;;;;;;25.67;100.00;101063.77;106604;1282;58276;-80
2023/07/16 03:45:30;;;;;;;5.50;2.50;;;;;;;26.20;98.93;101069.52;107128;1282;58358;-80
2023/07/16 03:47:56;;;;;;;6.70;2.80;;;;;;;26.73;95.42;101073.09;107120;1282;58778;-80
2023/07/16 03:50:21;;;;;;;3.80;2.30;;;;;;;27.15;90.65;101074.16;106565;1282;58703;-80
2023/07/16 03:52:47;;;;;;;5.50;2.60;;;;;;;27.46;86.70;101076.82;107156;1283;58237;-80
2023/07/16 03:55:12;;;;;;;5.90;2.80;;;;;;;27.83;84.00;101078.79;106706;1287;58397;-82
2023/07/16 03:57:38;;;;;;;4.30;2.20;;;;;;;28.04;79.58;101085.45;107144;1282;58350;-80
2023/07/16 04:00:07;;;;;;;5.10;2.30;;;;;;;28.28;77.53;101086.45;107103;1282;58589;-80
2023/07/16 04:02:33;;;;;;;7.00;2.50;;;;;;;28.58;75.19;101092.54;106686;1282;61102;-80
2023/07/16 04:04:58;;;;;;;3.80;2.40;;;;;;;28.94;74.45;101087.34;106907;1282;58359;-80
2023/07/16 04:07:24;;;;;;;5.50;2.30;;;;;;;29.36;72.06;101080.80;107151;1282;58791;-81
2023/07/16 04:09:51;;;;;;;3.20;2.40;;;;;;;29.82;70.01;101082.61;107097;1282;58373;-81
2023/07/16 04:12:16;;;;;;;3.90;2.40;;;;;;;30.37;67.32;101082.86;107111;1282;58945;-81
2023/07/16 04:14:42;;;;;;;10.10;2.50;;;;;;;30.84;64.87;101080.89;107138;1282;58512;-81
2023/07/16 04:17:08;;;;;;;8.70;2.70;;;;;;;31.17;61.86;101081.66;107166;1282;58778;-81
2023/07/16 04:19:33;;;;;;;4.70;2.40;;;;;;;31.32;60.15;101089.79;107131;1282;58601;-82
2023/07/16 04:21:59;;;;;;;3.40;2.60;;;;;;;31.51;58.20;101090.23;107125;1282;58204;-81
2023/07/16 04:24:26;;;;;;;8.60;3.00;;;;;;;31.59;56.58;101093.67;107133;1282;58467;-81
2023/07/16 04:26:53;;;;;;;6.80;3.10;;;;;;;31.64;56.27;101093.94;106745;1282;58342;-81
2023/07/16 04:29:18;;;;;;;5.90;2.70;;;;;;;31.85;55.21;101095.70;107124;1282;58193;-81
2023/07/16 04:31:44;;;;;;;5.30;2.70;;;;;;;32.04;54.95;101092.26;106784;1282;58457;-81
2023/07/16 04:34:09;;;;;;;8.20;2.90;;;;;;;32.34;54.23;101090.63;107115;1282;58276;-81
2023/07/16 04:36:35;;;;;;;5.30;2.80;;;;;;;32.71;53.09;101092.26;106712;1283;58355;-82
2023/07/16 04:39:01;;;;;;;6.40;3.00;;;;;;;33.10;52.58;101096.54;107137;1282;59951;-81
2023/07/16 04:41:27;;;;;;;3.90;2.40;;;;;;;33.13;50.06;101098.70;107135;1282;58223;-81
2023/07/16 04:43:52;;;;;;;4.80;3.00;;;;;;;32.89;48.84;101098.47;107131;1282;58542;-81
2023/07/16 04:46:18;;;;;;;4.50;2.90;;;;;;;32.52;49.31;101093.86;106755;1282;58322;-82
2023/07/16 04:48:43;;;;;;;5.50;2.60;;;;;;;32.78;50.58;101093.77;107102;1282;58225;-82
2023/07/16 04:51:09;;;;;;;5.50;3.10;;;;;;;33.23;49.49;101098.90;107139;1282;58257;-81
2023/07/16 04:53:37;;;;;;;7.30;2.80;;;;;;;33.73;49.31;101096.35;107124;1282;72576;-83
2023/07/16 04:56:03;;;;;;;12.20;2.60;;;;;;;34.09;47.79;101097.83;107081;1282;60875;-80
2023/07/16 04:58:28;;;;;;;7.60;3.10;;;;;;;34.27;47.00;101101.96;107088;1282;58652;-80
2023/07/16 05:00:54;;;;;;;6.40;3.10;;;;;;;34.63;46.02;101106.42;107151;1282;58324;-80
2023/07/16 05:03:19;;;;;;;10.50;3.10;;;;;;;34.80;44.93;101110.27;107122;1282;58329;-80
2023/07/16 05:05:45;;;;;;;3.50;2.60;;;;;;;34.74;44.59;101113.54;106768;1282;58588;-80
2023/07/16 05:08:10;;;;;;;5.90;3.00;;;;;;;35.03;44.94;101112.06;107102;1282;60929;-81
2023/07/16 05:10:36;;;;;;;4.50;3.20;;;;;;;35.53;43.84;101111.93;106788;1282;58608;-82
2023/07/16 05:13:03;;;;;;;7.30;3.30;;;;;;;35.84;43.04;101112.02;107110;1282;58297;-81
2023/07/16 05:15:29;;;;;;;5.60;3.10;;;;;;;36.08;42.24;101114.59;107097;1282;58301;-81
2023/07/16 05:17:57;;;;;;;5.90;3.20;;;;;;;36.27;41.60;101115.59;107124;1282;59130;-80
2023/07/16 05:20:22;;;;;;;4.20;2.80;;;;;;;36.51;41.42;101118.52;107090;1282;58245;-80
2023/07/16 05:22:48;;;;;;;3.40;3.10;;;;;;;36.81;40.72;101118.98;107129;1282;58837;-82
2023/07/16 05:25:13;;;;;;;4.90;3.10;;;;;;;36.99;40.03;101120.84;107136;1285;58318;-82
2023/07/16 05:27:39;;;;;;;4.10;3.00;;;;;;;37.08;39.36;101123.58;106604;1282;58369;-82
2023/07/16 05:30:05;;;;;;;7.50;2.70;;;;;;;37.14;39.07;101122.20;107209;1282;58771;-82
2023/07/16 05:32:31;;;;;;;6.10;3.30;;;;;;;37.33;38.25;101125.58;107126;1282;74556;-81
2023/07/16 05:34:56;;;;;;;6.60;3.20;;;;;;;37.39;37.88;101126.12;107169;1282;58296;-80
2023/07/16 05:37:22;;;;;;;6.80;2.60;;;;;;;37.39;37.63;101128.20;107120;1282;58236;-81
2023/07/16 05:39:47;;;;;;;5.90;2.90;;;;;;;37.41;37.47;101126.95;107113;1282;58290;-81
2023/07/16 05:42:12;;;;;;;6.50;3.70;;;;;;;37.67;37.60;101131.27;107167;1282;58259;-81
2023/07/16 05:44:38;;;;;;;6.40;3.00;;;;;;;38.02;37.24;101135.42;107107;1282;58248;-81
2023/07/16 05:47:04;;;;;;;3.50;2.70;;;;;;;38.28;36.51;101131.84;107134;1282;58305;-81
2023/07/16 05:49:30;;;;;;;4.40;3.20;;;;;;;38.49;36.64;101134.19;107141;1282;58183;-80
2023/07/16 05:51:55;;;;;;;6.30;3.20;;;;;;;38.64;36.23;101137.84;107142;1282;58190;-80
2023/07/16 05:54:22;;;;;;;6.40;3.10;;;;;;;38.42;35.51;101135.41;106876;1282;58392;-81
2023/07/16 05:56:47;;;;;;;3.90;3.10;;;;;;;38.24;35.11;101141.42;107143;1282;58457;-80
2023/07/16 05:59:13;;;;;;;3.50;3.10;;;;;;;37.58;34.61;101141.63;107148;1282;58337;-81
2023/07/16 06:01:38;;;;;;;6.30;2.90;;;;;;;36.85;36.08;101148.05;107100;1282;58756;-80
2023/07/16 06:04:04;;;;;;;7.50;2.80;;;;;;;37.17;35.71;101143.43;107145;1282;58224;-80
2023/07/16 06:06:31;;;;;;;4.70;2.90;;;;;;;37.39;35.43;101145.15;106785;1282;58242;-81
2023/07/16 06:08:56;;;;;;;6.60;3.00;;;;;;;37.55;35.24;101148.05;107115;1282;58296;-81
2023/07/16 06:11:22;;;;;;;6.60;3.20;;;;;;;37.93;35.69;101144.31;107113;1282;58473;-81
2023/07/16 06:13:47;;;;;;;5.80;2.80;;;;;;;38.56;34.73;101140.20;107199;1282;58883;-81
2023/07/16 06:16:13;;;;;;;10.70;2.80;;;;;;;38.72;34.03;101141.19;107092;1282;74907;-81
2023/07/16 06:18:38;;;;;;;2.90;2.40;;;;;;;38.65;33.40;101140.55;107133;1282;58225;-81
2023/07/16 06:21:04;;;;;;;5.80;2.40;;;;;;;38.72;33.52;101140.63;107104;1282;58268;-80
2023/07/16 06:23:29;;;;;;;5.30;2.30;;;;;;;38.77;32.42;101139.77;107143;1282;58346;-81
2023/07/16 06:25:56;;;;;;;2.60;2.10;;;;;;;38.64;31.65;101144.45;106747;1282;58296;-81
2023/07/16 06:28:21;;;;;;;3.60;2.80;;;;;;;38.47;32.22;101141.98;107121;1282;73524;-80
2023/07/16 06:30:47;;;;;;;3.60;2.30;;;;;;;38.84;31.95;101140.88;106592;1282;58287;-81
2023/07/16 06:33:12;;;;;;;5.20;2.70;;;;;;;38.85;31.66;101140.70;107106;1282;58156;-80
2023/07/16 06:35:38;;;;;;;4.00;2.70;;;;;;;38.90;31.80;101141.23;107103;1282;58545;-81
2023/07/16 06:38:06;;;;;;;6.70;2.60;;;;;;;38.99;31.44;101141.71;107153;1282;58244;-80
2023/07/16 06:40:32;;;;;;;3.70;2.50;;;;;;;39.31;31.74;101138.44;107097;1282;60521;-82
2023/07/16 06:42:57;;;;;;;6.70;2.50;;;;;;;39.79;31.40;101134.72;107097;1282;58340;-83
2023/07/16 06:45:23;;;;;;;3.10;2.30;;;;;;;40.14;30.79;101137.31;107128;1282;58352;-81
2023/07/16 06:47:49;;;;;;;4.70;2.50;;;;;;;40.04;29.74;101136.55;107129;1282;58268;-81
2023/07/16 06:50:14;;;;;;;2.60;2.40;;;;;;;40.08;29.83;101142.48;107136;1282;58186;-81
2023/07/16 06:52:40;;;;;;;5.80;2.30;;;;;;;40.21;29.29;101145.96;107138;1282;60539;-79
2023/07/16 06:55:06;;;;;;;3.60;2.60;;;;;;;40.09;29.22;101149.94;107141;1282;58334;-80
2023/07/16 06:57:31;;;;;;;3.30;2.40;;;;;;;39.79;29.08;101145.95;107175;1282;58280;-80
2023/07/16 06:59:57;;;;;;;3.00;2.10;;;;;;;39.94;29.85;101148.32;107093;1282;58212;-80
2023/07/16 07:02:22;;;;;;;4.70;2.20;;;;;;;40.45;29.12;101151.47;106624;1282;58428;-80
2023/07/16 07:04:48;;;;;;;4.70;2.40;;;;;;;40.81;28.97;101149.66;107123;1282;74426;-80
2023/07/16 07:07:13;;;;;;;6.10;2.50;;;;;;;40.85;29.06;101145.65;107116;1282;58244;-79
2023/07/16 07:09:39;;;;;;;6.00;2.70;;;;;;;41.00;29.02;101145.38;106857;1282;58249;-80
2023/07/16 07:12:04;;;;;;;3.70;2.40;;;;;;;40.52;27.74;101148.28;106876;1282;58558;-81
2023/07/16 07:14:31;;;;;;;2.50;2.30;;;;;;;40.14;28.30;101144.89;106745;1282;58632;-80
2023/07/16 07:16:57;;;;;;;8.10;2.70;;;;;;;40.42;28.09;101149.09;106776;1285;73443;-79
2023/07/16 07:19:22;;;;;;;4.20;2.40;;;;;;;40.39;28.06;101149.27;107137;1282;58283;-80
2023/07/16 07:21:48;;;;;;;6.40;2.20;;;;;;;40.26;28.27;101144.17;107091;1282;58172;-79
2023/07/16 07:24:13;;;;;;;3.80;2.50;;;;;;;39.90;27.68;101145.27;107145;1282;58687;-81
2023/07/16 07:26:39;;;;;;;4.50;2.50;;;;;;;39.57;28.25;101141.09;107158;1282;58545;-80
2023/07/16 07:29:04;;;;;;;4.40;2.50;;;;;;;39.79;27.92;101134.25;107113;1282;58541;-80
2023/07/16 07:31:30;;;;;;;3.80;2.20;;;;;;;39.87;28.13;101137.23;107105;1282;58243;-80
2023/07/16 07:33:57;;;;;;;2.90;2.10;;;;;;;39.70;27.50;101137.58;107150;1282;58561;-79
2023/07/16 07:36:23;;;;;;;2.20;1.90;;;;;;;39.25;28.29;101135.29;107131;1282;58224;-80
2023/07/16 07:38:49;;;;;;;5.90;2.20;;;;;;;39.39;28.09;101137.17;107113;1282;58228;-78
2023/07/16 07:41:14;;;;;;;3.70;1.90;;;;;;;39.45;27.46;101137.16;107112;1282;58504;-79
2023/07/16 07:43:40;;;;;;;9.80;4.20;;;;;;;39.11;27.60;101137.21;107135;1282;58263;-79
2023/07/16 07:46:05;;;;;;;7.50;3.10;;;;;;;38.58;27.89;101144.61;107125;1282;73970;-79
2023/07/16 07:48:31;;;;;;;9.40;2.80;;;;;;;38.35;28.10;101145.46;107105;1282;58294;-78
2023/07/16 07:50:57;;;;;;;6.50;2.30;;;;;;;38.05;28.30;101147.43;107090;1282;58274;-79
2023/07/16 07:53:22;;;;;;;6.90;2.20;;;;;;;38.23;28.93;101144.46;106838;1282;58202;-79
2023/07/16 07:55:48;;;;;;;4.00;2.00;;;;;;;38.09;28.24;101145.73;106733;1282;58345;-78
2023/07/16 07:58:13;;;;;;;3.50;2.30;;;;;;;38.01;28.82;101147.05;107174;1282;58279;-78
2023/07/16 08:00:39;;;;;;;3.50;2.00;;;;;;;38.24;28.31;101148.86;107094;1282;58264;-78
2023/07/16 08:03:04;;;;;;;2.90;1.90;;;;;;;38.05;28.07;101149.77;107138;1282;58280;-79
2023/07/16 08:05:31;;;;;;;3.50;2.20;;;;;;;38.16;28.31;101148.16;107154;1282;58268;-81
2023/07/16 08:07:56;;;;;;;3.10;1.80;;;;;;;38.72;28.36;101145.52;107101;1282;58201;-80
2023/07/16 08:10:22;;;;;;;5.70;2.00;;;;;;;39.30;27.54;101140.07;107136;1282;58411;-81
2023/07/16 08:12:48;;;;;;;4.70;2.00;;;;;;;39.58;27.78;101136.71;107157;1282;58267;-82
2023/07/16 08:15:14;;;;;;;7.20;2.20;;;;;;;40.10;27.00;101135.63;107089;1283;61084;-79
2023/07/16 08:17:44;;;;;;;2.40;1.90;;;;;;;40.21;26.67;101134.74;106786;1282;58237;-79
2023/07/16 08:20:10;;;;;;;3.30;1.90;;;;;;;39.83;26.61;101130.48;107114;1282;73398;-80
2023/07/16 08:22:36;;;;;;;4.90;2.10;;;;;;;39.57;26.75;101132.15;106567;1288;58196;-80
2023/07/16 08:25:03;;;;;;;5.90;2.00;;;;;;;39.38;26.58;101129.23;107087;1282;58191;-79
2023/07/16 08:27:29;;;;;;;5.50;2.20;;;;;;;39.21;26.68;101129.11;107089;1282;58595;-81
2023/07/16 08:29:55;;;;;;;3.50;1.90;;;;;;;39.27;26.65;101131.45;107122;1282;58149;-80
2023/07/16 08:32:21;;;;;;;2.30;1.80;;;;;;;39.38;26.22;101129.55;107105;1282;58699;-79
2023/07/16 08:34:47;;;;;;;6.90;2.20;;;;;;;38.92;26.44;101133.52;106549;1283;58247;-80
2023/07/16 08:37:13;;;;;;;7.00;1.90;;;;;;;38.49;27.17;101131.92;107052;1283;58280;-78
2023/07/16 08:39:38;;;;;;;2.40;1.60;;;;;;;38.37;26.87;101132.70;106890;1283;58984;-79
2023/07/16 08:42:04;;;;;;;3.10;1.60;;;;;;;38.41;27.22;101133.23;107028;1283;58386;-81
2023/07/16 08:44:30;;;;;;;2.60;1.50;;;;;;;38.85;26.93;101129.59;106665;1283;72367;-79
2023/07/16 08:46:56;;;;;;;2.80;1.80;;;;;;;38.90;26.64;101130.69;107077;1283;58185;-80
2023/07/16 08:49:22;;;;;;;1.80;1.60;;;;;;;38.94;26.79;101130.48;107048;1285;58268;-78
2023/07/16 08:51:49;;;;;;;4.50;1.60;;;;;;;38.99;26.56;101119.70;106483;1283;341097;-79
2023/07/16 08:54:17;;;;;;;8.10;2.20;;;;;;;39.12;26.63;101119.04;107029;1283;58277;-79
2023/07/16 08:56:44;;;;;;;5.90;2.10;;;;;;;38.71;27.04;101118.03;107005;1283;58459;-79
2023/07/16 08:59:10;;;;;;;3.90;2.20;;;;;;;38.40;26.94;101116.53;106988;1283;59605;-78
2023/07/16 09:01:37;;;;;;;3.50;1.80;;;;;;;37.94;27.77;101117.34;106680;1286;58599;-79
2023/07/16 09:04:03;;;;;;;2.90;1.50;;;;;;;38.00;27.94;101119.40;106971;1286;73629;-80
2023/07/16 09:06:28;;;;;;;5.90;1.50;;;;;;;38.10;28.13;101120.20;106882;1285;58339;-80
2023/07/16 09:08:55;;;;;;;7.60;1.60;;;;;;;38.28;27.74;101119.95;107022;1285;58275;-80
2023/07/16 09:11:22;;;;;;;2.50;1.60;;;;;;;38.76;27.62;101115.88;106756;1283;58350;-80
2023/07/16 09:13:48;;;;;;;6.40;1.80;;;;;;;38.85;26.89;101112.11;107028;1283;58192;-79
2023/07/16 09:16:16;;;;;;;6.80;2.00;;;;;;;38.36;27.36;101107.59;107023;1286;58684;-78
2023/07/16 09:18:42;;;;;;;4.30;1.50;;;;;;;38.52;28.35;101108.70;107023;1285;58214;-79
2023/07/16 09:21:08;;;;;;;1.80;1.60;;;;;;;38.73;27.50;101104.50;106759;1283;58269;-78
2023/07/16 09:23:34;;;;;;;6.20;1.70;;;;;;;38.22;27.31;101109.79;106982;1285;58376;-79
2023/07/16 09:26:03;;;;;;;3.90;1.60;;;;;;;37.69;28.23;101113.30;107050;1288;58217;-79
2023/07/16 09:28:30;;;;;;;5.20;1.50;;;;;;;37.39;27.91;101113.20;106891;1283;74702;-78
2023/07/16 09:31:02;;;;;;;2.40;1.50;;;;;;;36.69;28.82;101109.96;106994;1285;74217;-78
2023/07/16 09:33:28;;;;;;;4.00;1.40;;;;;;;36.24;29.19;101107.63;106718;1283;72836;-78
2023/07/16 09:35:54;;;;;;;2.70;1.40;;;;;;;36.09;29.47;101103.21;107017;1283;58271;-77
2023/07/16 09:38:24;;;;;;;6.90;1.50;;;;;;;35.82;29.96;101105.64;107025;1288;58531;-79
2023/07/16 09:40:51;;;;;;;4.10;1.20;;;;;;;35.96;29.87;101104.98;106918;1283;73947;-79
2023/07/16 09:43:17;;;;;;;3.90;1.20;;;;;;;35.98;29.09;101101.74;106548;1287;73483;-79
2023/07/16 09:45:42;;;;;;;3.80;1.30;;;;;;;36.00;29.66;101111.42;106539;1288;58382;-80
2023/07/16 09:48:09;;;;;;;6.00;1.50;;;;;;;35.95;29.37;101104.57;106537;1288;58289;-79
2023/07/16 09:50:35;;;;;;;3.60;1.20;;;;;;;35.62;29.59;101108.46;106258;1288;59270;-80
2023/07/16 09:53:03;;;;;;;6.60;1.60;;;;;;;35.27;29.53;101108.54;106292;1291;58781;-79
2023/07/16 09:55:33;;;;;;;1.80;1.20;;;;;;;35.14;29.23;101106.29;106299;1287;58319;-79
2023/07/16 09:58:02;;;;;;;2.20;1.00;;;;;;;35.20;29.30;101102.94;106251;1289;72639;-78
2023/07/16 10:00:29;;;;;;;3.20;1.50;;;;;;;35.17;29.54;101101.54;106475;1287;60979;-78
2023/07/16 10:02:55;;;;;;;4.50;1.30;;;;;;;34.90;29.68;101094.35;106533;1287;61166;-79
2023/07/16 10:05:28;;;;;;;3.10;1.40;;;;;;;34.91;30.49;101096.89;106257;1289;58306;-78
2023/07/16 10:07:59;;;;;;;4.30;1.40;;;;;;;34.98;30.51;101090.66;106540;1286;74753;-78
2023/07/16 10:10:39;;;;;;;5.20;1.50;;;;;;;35.17;30.77;101089.19;106515;1288;72422;-78
2023/07/16 10:13:08;;;;;;;3.90;1.10;;;;;;;35.09;30.22;101096.33;106504;1288;60051;-77
2023/07/16 10:15:33;;;;;;;3.50;1.00;;;;;;;34.71;30.09;101098.36;106527;1287;60886;-78
2023/07/16 10:17:59;;;;;;;2.30;1.20;;;;;;;34.57;29.96;101096.71;106540;1289;58331;-78
2023/07/16 10:20:33;;;;;;;2.40;1.20;;;;;;;34.45;29.96;101099.02;106631;1282;58215;-78
2023/07/16 10:23:11;;;;;;;1.70;1.10;;;;;;;34.52;29.41;101093.70;107068;1282;73452;-78
2023/07/16 10:25:36;;;;;;;3.90;1.30;;;;;;;34.55;29.78;101098.26;107087;1282;60157;-79
2023/07/16 10:28:02;;;;;;;2.80;1.70;;;;;;;34.51;29.84;101098.02;106727;1287;58504;-78
2023/07/16 10:30:28;;;;;;;1.90;1.50;;;;;;;34.46;30.62;101102.14;107149;1282;58176;-78
2023/07/16 10:32:54;;;;;;;2.00;1.30;;;;;;;34.52;29.38;101098.89;107153;1282;58229;-78
2023/07/16 10:35:19;;;;;;;5.30;1.30;;;;;;;34.43;29.74;101102.39;107127;1282;58240;-78
2023/07/16 10:37:45;;;;;;;2.20;1.20;;;;;;;34.37;29.76;101104.85;107170;1282;58160;-78
2023/07/16 10:40:12;;;;;;;2.10;1.00;;;;;;;34.35;29.10;101106.46;107067;1282;74456;-78
2023/07/16 10:42:41;;;;;;;3.10;1.30;;;;;;;34.28;28.65;101105.23;106539;1287;73632;-81
2023/07/16 10:45:07;;;;;;;2.10;0.90;;;;;;;34.26;28.53;101103.73;107063;1282;72652;-80
2023/07/16 10:47:34;;;;;;;1.60;1.20;;;;;;;34.15;28.57;101102.84;106656;1286;58217;-79
2023/07/16 10:50:03;;;;;;;3.30;1.20;;;;;;;34.16;29.16;101104.11;106368;1286;61067;-80
2023/07/16 10:52:28;;;;;;;8.90;1.50;;;;;;;33.98;29.35;101107.58;106651;1286;75217;-80
2023/07/16 10:54:54;;;;;;;3.00;1.30;;;;;;;33.97;29.78;101105.58;106406;1286;58574;-79
2023/07/16 10:57:21;;;;;;;5.20;1.10;;;;;;;34.03;30.05;101104.75;106609;1286;58409;-79
2023/07/16 10:59:48;;;;;;;1.10;1.00;;;;;;;34.22;30.34;101104.24;106672;1286;58693;-79
2023/07/16 11:02:16;;;;;;;2.70;1.20;;;;;;;34.27;30.30;101104.35;106620;1286;59196;-79
2023/07/16 11:04:44;;;;;;;2.80;1.00;;;;;;;33.80;30.08;101110.61;106652;1286;74835;-80
2023/07/16 11:07:11;;;;;;;1.20;1.10;;;;;;;33.23;29.96;101114.94;106670;1286;73357;-79
2023/07/16 11:09:44;;;;;;;2.40;1.00;;;;;;;33.16;30.30;101117.03;106597;1286;73324;-78